»·PEaware :: N281VT KBUR-KLAS

N281VT :: KBUR-KLAS

FLIGHT INFORMATION

Flight Status: Arrived
Operator: Privately registered:
United States
More flights under this callsign
Pilot: Gopalakrishna Pillai Sulekha S. (22834)
Aircraft: Unknown
(EPIC)
More flights by this aircraft type
Origin: KBUR Bob Hope-Burbank
United States
Destination: KLAS McCarran Intl
United States
More flights between these airports :: More routes between these airports
Route: +VNY3 DAG CRESO4
File this flight plan on PilotEdge
Remarks: I5 RATING
Altitude:
(Current/Filed)
17,000ft
Speed:
(Current/Filed)
230kts
Departed: 16-Feb-19 08:29 AM
Arrived: 16-Feb-19 10:43 AM
Distance/Time
Traveled:
193nm/2:14
Distance/Time
To Go:
Arrived

Flight Plot

Page will automatically refresh every two minutes.

Flight plan parsing failed; only flown route is shown


Map Options




Map Legend


Flown Route
Filed Route
Departure Airport
Arrival Airport
Navaid (VOR, NDB)
Fix

Horizontal Profiles

Position Reports

Time Latitude Longitude Heading Altitude Ground
Speed
16-Feb-19 08:14 34.196144 -118.367522 359 781ft 0kts
16-Feb-19 08:15 34.196144 -118.367522 359 781ft 0kts
16-Feb-19 08:16 34.196144 -118.367522 359 781ft 0kts
16-Feb-19 08:17 34.196144 -118.367522 359 781ft 0kts
16-Feb-19 08:18 34.196144 -118.367522 359 781ft 0kts
16-Feb-19 08:19 34.196144 -118.367522 359 781ft 0kts
16-Feb-19 08:20 34.196144 -118.367522 359 781ft 0kts
16-Feb-19 08:21 34.196144 -118.367522 359 781ft 0kts
16-Feb-19 08:22 34.196144 -118.367522 359 781ft 0kts
16-Feb-19 08:23 34.196144 -118.367522 359 781ft 0kts
16-Feb-19 08:24 34.196144 -118.367522 359 781ft 0kts
16-Feb-19 08:25 34.196947 -118.368519 277 781ft 12kts
16-Feb-19 08:26 34.197010 -118.368753 303 781ft 0kts
16-Feb-19 08:28 34.197010 -118.368753 303 781ft 0kts
16-Feb-19 08:29 34.197683 -118.357221 93 924ft 130kts
16-Feb-19 08:30 34.170807 -118.322930 207 2751ft 186kts
16-Feb-19 08:31 34.134232 -118.356377 225 4016ft 167kts
16-Feb-19 08:32 34.099577 -118.399766 278 4027ft 183kts
16-Feb-19 08:33 34.126894 -118.440009 315 4024ft 140kts
16-Feb-19 08:34 34.152629 -118.472160 316 4021ft 126kts
16-Feb-19 08:51 33.933296 -118.399922 83 112ft 0kts
16-Feb-19 09:21 34.196145 -118.367522 359 781ft 0kts
16-Feb-19 09:22 34.196145 -118.367522 359 781ft 0kts
16-Feb-19 09:23 34.196145 -118.367522 359 781ft 0kts
16-Feb-19 09:24 34.196145 -118.367522 359 781ft 0kts
16-Feb-19 09:25 34.196145 -118.367522 359 781ft 0kts
16-Feb-19 09:26 34.196290 -118.367091 88 781ft 13kts
16-Feb-19 09:27 34.197025 -118.368764 301 781ft 0kts
16-Feb-19 09:28 34.197025 -118.368764 301 781ft 0kts
16-Feb-19 09:29 34.197881 -118.366955 91 781ft 62kts
16-Feb-19 09:30 34.181931 -118.333820 189 2464ft 162kts
16-Feb-19 09:31 34.148215 -118.361499 225 3993ft 161kts
16-Feb-19 09:32 34.122242 -118.406362 306 4278ft 157kts
16-Feb-19 09:33 34.157839 -118.411326 352 6233ft 121kts
16-Feb-19 09:34 34.194510 -118.408644 352 8261ft 141kts
16-Feb-19 09:35 34.238197 -118.406254 352 9002ft 181kts
16-Feb-19 09:36 34.287696 -118.419682 332 9036ft 193kts
16-Feb-19 09:37 34.339412 -118.442603 335 9034ft 199kts
16-Feb-19 09:38 34.392227 -118.448026 41 9033ft 227kts
16-Feb-19 09:39 34.428949 -118.387673 44 9523ft 201kts
16-Feb-19 09:40 34.455352 -118.345147 37 10782ft 139kts
16-Feb-19 09:41 34.480988 -118.304615 37 12487ft 162kts
16-Feb-19 09:42 34.509543 -118.259203 36 13970ft 188kts
16-Feb-19 09:43 34.548402 -118.197192 42 13992ft 260kts
16-Feb-19 09:44 34.593256 -118.125092 42 13989ft 270kts
16-Feb-19 09:45 34.633845 -118.048358 76 13993ft 289kts
16-Feb-19 09:46 34.643867 -117.950937 77 13990ft 290kts
16-Feb-19 09:47 34.654399 -117.853723 77 13991ft 290kts
16-Feb-19 09:48 34.665552 -117.756059 71 13938ft 289kts
16-Feb-19 09:49 34.689673 -117.663909 66 13938ft 284kts
16-Feb-19 09:50 34.713074 -117.572669 65 14207ft 274kts
16-Feb-19 09:51 34.734432 -117.488775 62 16113ft 247kts
16-Feb-19 09:52 34.754793 -117.406088 63 16980ft 282kts
16-Feb-19 09:53 34.780432 -117.309503 68 16960ft 309kts
16-Feb-19 09:54 34.804857 -117.211285 67 16959ft 298kts
16-Feb-19 09:55 34.829061 -117.114994 67 16936ft 295kts
16-Feb-19 09:56 34.852999 -117.019489 67 16934ft 294kts
16-Feb-19 09:57 34.876786 -116.924246 67 16935ft 293kts
16-Feb-19 09:58 34.900402 -116.829333 67 16939ft 293kts
16-Feb-19 09:59 34.923920 -116.734318 66 17003ft 292kts
16-Feb-19 10:00 34.947239 -116.639991 65 17001ft 288kts
16-Feb-19 10:01 34.974330 -116.549412 49 17004ft 277kts
16-Feb-19 10:02 35.011876 -116.466952 51 17003ft 278kts
16-Feb-19 10:03 35.048885 -116.383664 51 16995ft 279kts
16-Feb-19 10:04 35.085908 -116.300011 52 16998ft 277kts
16-Feb-19 10:05 35.125059 -116.211515 55 14993ft 300kts
16-Feb-19 10:06 35.162526 -116.126284 57 12888ft 272kts
16-Feb-19 10:07 35.197085 -116.047642 58 10662ft 255kts
16-Feb-19 10:08 35.227100 -115.979028 58 10069ft 203kts
16-Feb-19 10:09 35.252266 -115.921561 58 10075ft 189kts
16-Feb-19 10:10 35.278524 -115.861456 59 10075ft 206kts
16-Feb-19 10:11 35.306545 -115.797156 59 10074ft 218kts
16-Feb-19 10:12 35.345234 -115.740855 43 10074ft 218kts
16-Feb-19 10:13 35.386453 -115.686105 43 10037ft 218kts
16-Feb-19 10:14 35.427658 -115.631106 43 10037ft 218kts
16-Feb-19 10:15 35.468727 -115.576176 43 10037ft 217kts
16-Feb-19 10:16 35.509570 -115.521459 43 10037ft 217kts
16-Feb-19 10:17 35.550419 -115.466682 43 10037ft 217kts
16-Feb-19 10:18 35.591284 -115.411798 43 10037ft 217kts
16-Feb-19 10:19 35.632056 -115.356946 43 10037ft 217kts
16-Feb-19 10:20 35.672612 -115.302295 44 10035ft 213kts
16-Feb-19 10:21 35.712346 -115.248671 44 10035ft 211kts
16-Feb-19 10:22 35.752893 -115.198048 17 9944ft 207kts
16-Feb-19 10:23 35.812494 -115.179352 11 8044ft 228kts
16-Feb-19 10:24 35.870799 -115.162594 11 7029ft 186kts
16-Feb-19 10:25 35.915470 -115.149601 11 7031ft 152kts
16-Feb-19 10:26 35.955260 -115.137992 11 7034ft 146kts
16-Feb-19 10:27 35.995010 -115.126162 11 7034ft 148kts
16-Feb-19 10:28 36.036640 -115.106976 21 5875ft 174kts
16-Feb-19 10:29 36.076859 -115.085634 21 5490ft 134kts
16-Feb-19 10:30 36.110122 -115.065531 21 5503ft 141kts
16-Feb-19 10:31 36.147139 -115.042907 21 5510ft 154kts
16-Feb-19 10:33 36.187203 -115.020750 351 5510ft 156kts
16-Feb-19 10:34 36.191564 -115.057884 251 5512ft 132kts
16-Feb-19 10:35 36.177897 -115.099753 251 5507ft 127kts
16-Feb-19 10:36 36.160022 -115.132443 187 5501ft 121kts
16-Feb-19 10:37 36.120129 -115.151933 191 4306ft 247kts
16-Feb-19 10:38 36.056647 -115.181358 208 3432ft 179kts
16-Feb-19 10:39 36.057477 -115.224481 321 3426ft 143kts
16-Feb-19 10:40 36.091818 -115.205995 31 3387ft 164kts
16-Feb-19 10:41 36.127286 -115.167896 76 4010ft 176kts
16-Feb-19 10:42 36.104849 -115.153416 206 2339ft 110kts
16-Feb-19 10:43 36.092629 -115.160489 205 2109ft 18kts
16-Feb-19 10:44 36.089274 -115.163144 294 2128ft 0kts
16-Feb-19 10:45 36.089274 -115.163144 294 2128ft 0kts
16-Feb-19 10:46 36.086660 -115.165389 205 2141ft 28kts
16-Feb-19 10:47 36.082531 -115.168451 222 2161ft 22kts
16-Feb-19 10:48 36.080805 -115.170832 229 2169ft 0kts

Navigation Log

Ident Type
Flight plan parsing failed, navigation log unavailable